INDIA METEOROLOGICAL DEPARTMENT, R.M.C. NEW DELHI
Dated:23-10-2017
METARS


Agartala   
VEAT 231330Z 13004KT 5000 BR FEW020 26/24 Q1008 NOSIG=
Ahmedabad  
VAAH 231330Z 36003KT 4000 FU NSC 29/20 Q1010 NOSIG=
Amritsar   
VIAR 231330Z 00000KT 4000 HZ NSC 25/18 Q1010 NOSIG=
Aurangabad 
VAAU 231200Z 34004KT 5000 HZ FEW020 30/16 Q1012 NOSIG=
Bangalore  
VOBL 231330Z VRB02KT 8000 NSC 24/16 Q1015 NOSIG=
Baroda     
VABO 231300Z 25005KT 6000 NSC 32/17 Q1009 NOSIG=
Bhopal     
VABP 231330Z 28008KT 6000 NSC 25/10 Q1012 NOSIG=
Bhubaneswar
VEBS 231300Z 00000KT 5000 HZ FEW020 29/26 Q1008 NOSIG=
Chennai    
VOMM 231330Z 09005KT 5000 HZ FEW018 SCT100 31/25 Q1009 NOSIG=
Coimbatore 
VOCB 231330Z 21006KT 6000 FEW015 27/19 Q1012 NOSIG=
Colombo    
VCBI 231310Z 21004KT 150V240 8000 SCT018 28/24 Q1010 NOSIG=
Delhi      
VIDP 231330Z 05003KT 2500 HZ NSC 29/10 Q1009 NOSIG=
Dehradun   
VIDN 231330Z 01004KT 2000 BR NSC 20/16 Q1010=
Gauhati    
VEGT 231330Z 00000KT 3000 BR FEW020 27/25 Q1008 NOSIG=
Gaya       
VEGY 231330Z NIL=
Goa        
VOGO 231330Z VRB03KT 4000 HZ FEW012 SCT016 BKN080 28/24 Q1009 NOSIG=
Fursatganj 
VERB 231200Z 00000KT 3500 HZ NSC 30/21 Q1005 =
Hyderabad  
VOHS 231330Z 26004KT 5000 TS SCT015 FEW030CB BKN100 26/25 Q1013 NOSIG=
Imphal     
VEIM 231200Z 29006KT 4000 BR SCT018 BKN100 22/19 Q1011 NOSIG=
Indore     
VAID 231300Z 30005KT 5000 HZ NSC 28/09 Q1013 NOSIG=
Jabalpur   
VAJB 231300Z 00000KT 6000 FEW200 28/10 Q1011=
Jaipur     
VIJP 231330Z 30004KT 4000 HZ NSC 29/02 Q1011 NOSIG=
Khajuraho  
VEKO 231200Z 18002KT 6000 NSC 34/22 Q1007=
Kochi      
VOCI 231330Z 00000KT 4000 HZ FEW015 28/23 Q1010 NOSIG=
Kolkata    
VECC 231330Z 22004KT 3200 HZ FEW020 28/24 Q1008 NOSIG=
Kozhikode  
VOCL 231330Z 23003KT 6000 HZ FEW012 27/22 Q1010 NOSIG=
Lucknow    
VILK 231330Z 00000KT 3000 HZ NSC 28/16 Q1007 NOSIG=
Madurai    
VOMD 231330Z 11005KT 6000 SCT018 FEW025CB BKN100 29/23 Q1010 NOSIG=
Mumbai     
VABB 231330Z 36003KT 3500 HZ NSC 31/24 Q1010 NOSIG=
Nagpur     
VANP 231330Z 00000KT 4000 HZ FEW020 BKN250 27/21 Q1011 NO SIG=
Patna      
VEPT 231330Z NIL=
Raipur     
VERP 231200Z 25003KT 4000 HZ FEW030 31/23 Q1009 NO SIG=
Safdarjung 
VIDD 231230Z 00000KT 2000 FU NSC 30/19 Q1008 NOSIG=
Shimla     
VISM 231200Z 18002KT 5000 HZ NSC 19/04 Q1017=
Surat     
VASU 231300Z 36002KT 5000 HZ NSC 30/17 Q1009=
Ranchi     
VERC 231330Z 22004KT 4000 HZ NSC 25/20 Q1012 NOSIG=
Trichy     
VOTR 231330Z 00000KT 6000 SCT018 SCT100 31/24 Q1009 NOSIG=
Trivandrum 
VOTV 231330Z 32007KT 3000 HZ FEW015 28/25 Q1009 NOSIG=
Udaipur    
VAUD 231400Z 00000KT 6000 NSC 26/10 Q1013 NOSIG=
Varanasi   
VEBN 231300Z 00000KT 3500 HZ NSC 28/21 Q1006 NOSIG=
Vizag      
VOVZ 231300Z VRB02KT 3500 FU/BR FEW016 30/26 Q1008 NOSIG =
Male       
VRMM 231300Z 30005KT 9999 FEW018TCU SCT290 29/25 Q1010 NOSIG=
Gan        
VRMG 231300Z 27006KT 9999 FEW018 29/23 Q1010 NOSIG=
Kathmandu  
VNKT 231330Z NIL=
Dhaka      
VGHS 231330Z NIL=
Colombo    
VCBI 231310Z 21004KT 150V240 8000 SCT018 28/24 Q1010 NOSIG=
Karachi    
OPKC 231325Z 25011KT 7000 FEW020 29/21 Q1011 NOSIG=
Lahore     
OPLA 231330Z 00000KT 4000 HZ NSC 28/15 Q1010/A29.82=
Gorakhpur  
VEGK 231230Z 00000KT 3000 BR SKC 24/22 Q1006 BECMG 2000=
Gwalior    
VIGR 231200Z 00000KT 4000 HZ NSC 30/16 Q1007=
Pune       
VAPO 231330Z 28006KT 6000 SCT080 SCT250 25/20 Q1014 NOSIG=